Aviation Digital Data Service (ADDS)

Output produced by METARs form (0728 UTC 06 March 2015)
found at http://aviationweather.gov/adds/metars/
 
KAVL 060529Z 0606/0706 35012G22KT P6SM SCT015 
     FM061200 33006KT P6SM FEW020